sensor_id;sensor_type;location;lat;lon;timestamp;P1;durP1;ratioP1;P2;durP2;ratioP2
20104;SDS011;10212;42.714;23.310;2023-02-23T00:14:55;23.00;;;13.40;;
20104;SDS011;10212;42.714;23.310;2023-02-23T00:34:56;20.00;;;12.10;;
20104;SDS011;10212;42.714;23.310;2023-02-23T00:44:57;20.63;;;10.90;;
20104;SDS011;10212;42.714;23.310;2023-02-23T01:04:58;21.95;;;13.82;;
20104;SDS011;10212;42.714;23.310;2023-02-23T01:24:58;29.03;;;14.90;;
20104;SDS011;10212;42.714;23.310;2023-02-23T01:55:35;31.40;;;18.58;;
20104;SDS011;10212;42.714;23.310;2023-02-23T02:05:37;45.17;;;20.95;;
20104;SDS011;10212;42.714;23.310;2023-02-23T02:15:40;39.28;;;20.13;;
20104;SDS011;10212;42.714;23.310;2023-02-23T02:46:13;33.13;;;18.83;;
20104;SDS011;10212;42.714;23.310;2023-02-23T02:56:18;36.28;;;18.85;;
20104;SDS011;10212;42.714;23.310;2023-02-23T03:06:26;39.53;;;18.70;;
20104;SDS011;10212;42.714;23.310;2023-02-23T03:28:01;34.97;;;18.58;;
20104;SDS011;10212;42.714;23.310;2023-02-23T03:38:02;33.28;;;16.63;;
20104;SDS011;10212;42.714;23.310;2023-02-23T03:48:29;29.93;;;16.07;;
20104;SDS011;10212;42.714;23.310;2023-02-23T03:58:52;24.75;;;14.98;;
20104;SDS011;10212;42.714;23.310;2023-02-23T04:09:16;27.33;;;15.45;;
20104;SDS011;10212;42.714;23.310;2023-02-23T04:19:35;28.75;;;15.65;;
20104;SDS011;10212;42.714;23.310;2023-02-23T04:39:35;44.88;;;24.15;;
20104;SDS011;10212;42.714;23.310;2023-02-23T04:59:36;33.83;;;17.85;;
20104;SDS011;10212;42.714;23.310;2023-02-23T05:19:37;46.85;;;22.80;;
20104;SDS011;10212;42.714;23.310;2023-02-23T05:39:38;42.78;;;21.38;;
20104;SDS011;10212;42.714;23.310;2023-02-23T05:49:39;37.20;;;20.60;;
20104;SDS011;10212;42.714;23.310;2023-02-23T06:09:40;40.63;;;21.83;;
20104;SDS011;10212;42.714;23.310;2023-02-23T06:29:41;40.10;;;22.15;;
20104;SDS011;10212;42.714;23.310;2023-02-23T06:39:42;45.75;;;23.63;;
20104;SDS011;10212;42.714;23.310;2023-02-23T06:59:42;51.97;;;26.80;;
20104;SDS011;10212;42.714;23.310;2023-02-23T07:19:43;40.83;;;21.83;;
20104;SDS011;10212;42.714;23.310;2023-02-23T07:29:44;38.93;;;21.90;;
20104;SDS011;10212;42.714;23.310;2023-02-23T07:49:45;39.45;;;23.08;;
20104;SDS011;10212;42.714;23.310;2023-02-23T07:59:46;43.72;;;22.52;;
20104;SDS011;10212;42.714;23.310;2023-02-23T08:09:47;38.05;;;20.63;;
20104;SDS011;10212;42.714;23.310;2023-02-23T08:19:48;28.92;;;16.25;;
20104;SDS011;10212;42.714;23.310;2023-02-23T08:29:48;26.75;;;15.85;;
20104;SDS011;10212;42.714;23.310;2023-02-23T08:39:51;31.88;;;15.82;;
20104;SDS011;10212;42.714;23.310;2023-02-23T08:49:51;32.85;;;15.65;;
20104;SDS011;10212;42.714;23.310;2023-02-23T08:59:55;29.08;;;16.27;;
20104;SDS011;10212;42.714;23.310;2023-02-23T09:09:56;27.92;;;15.73;;
20104;SDS011;10212;42.714;23.310;2023-02-23T09:19:56;27.65;;;15.55;;
20104;SDS011;10212;42.714;23.310;2023-02-23T09:29:57;23.08;;;12.35;;
20104;SDS011;10212;42.714;23.310;2023-02-23T09:39:57;23.13;;;12.88;;
20104;SDS011;10212;42.714;23.310;2023-02-23T09:49:58;21.08;;;12.25;;
20104;SDS011;10212;42.714;23.310;2023-02-23T10:31:27;21.55;;;11.43;;
20104;SDS011;10212;42.714;23.310;2023-02-23T10:41:28;15.20;;;9.43;;
20104;SDS011;10212;42.714;23.310;2023-02-23T10:51:31;17.10;;;9.35;;
20104;SDS011;10212;42.714;23.310;2023-02-23T11:01:36;20.90;;;10.82;;
20104;SDS011;10212;42.714;23.310;2023-02-23T11:11:54;14.57;;;8.95;;
20104;SDS011;10212;42.714;23.310;2023-02-23T11:21:57;21.98;;;10.07;;
20104;SDS011;10212;42.714;23.310;2023-02-23T11:31:58;17.70;;;8.02;;
20104;SDS011;10212;42.714;23.310;2023-02-23T11:42:03;13.45;;;6.95;;
20104;SDS011;10212;42.714;23.310;2023-02-23T11:52:15;17.05;;;8.02;;
20104;SDS011;10212;42.714;23.310;2023-02-23T12:12:26;11.75;;;6.43;;
20104;SDS011;10212;42.714;23.310;2023-02-23T12:22:37;13.50;;;5.90;;
20104;SDS011;10212;42.714;23.310;2023-02-23T12:42:58;9.57;;;5.30;;
20104;SDS011;10212;42.714;23.310;2023-02-23T13:24:13;9.68;;;4.85;;
20104;SDS011;10212;42.714;23.310;2023-02-23T13:34:25;11.75;;;5.18;;
20104;SDS011;10212;42.714;23.310;2023-02-23T13:44:31;12.35;;;5.82;;
20104;SDS011;10212;42.714;23.310;2023-02-23T13:54:33;9.82;;;5.68;;
20104;SDS011;10212;42.714;23.310;2023-02-23T14:04:35;12.40;;;5.63;;
20104;SDS011;10212;42.714;23.310;2023-02-23T14:14:39;8.88;;;4.93;;
20104;SDS011;10212;42.714;23.310;2023-02-23T14:24:41;15.90;;;6.78;;
20104;SDS011;10212;42.714;23.310;2023-02-23T14:44:57;12.02;;;7.72;;
20104;SDS011;10212;42.714;23.310;2023-02-23T14:55:46;14.50;;;7.55;;
20104;SDS011;10212;42.714;23.310;2023-02-23T15:05:32;14.23;;;6.32;;
20104;SDS011;10212;42.714;23.310;2023-02-23T15:15:36;12.45;;;6.28;;
20104;SDS011;10212;42.714;23.310;2023-02-23T15:25:44;13.50;;;6.30;;
20104;SDS011;10212;42.714;23.310;2023-02-23T15:35:48;14.35;;;7.00;;
20104;SDS011;10212;42.714;23.310;2023-02-23T15:45:51;9.65;;;6.55;;
20104;SDS011;10212;42.714;23.310;2023-02-23T15:55:54;10.40;;;6.53;;
20104;SDS011;10212;42.714;23.310;2023-02-23T16:06:01;17.80;;;8.20;;
20104;SDS011;10212;42.714;23.310;2023-02-23T16:16:07;15.27;;;7.43;;
20104;SDS011;10212;42.714;23.310;2023-02-23T16:26:18;12.18;;;7.30;;
20104;SDS011;10212;42.714;23.310;2023-02-23T16:36:24;14.15;;;8.02;;
20104;SDS011;10212;42.714;23.310;2023-02-23T16:57:11;15.65;;;8.52;;
20104;SDS011;10212;42.714;23.310;2023-02-23T17:07:21;22.10;;;11.70;;
20104;SDS011;10212;42.714;23.310;2023-02-23T17:17:21;74.20;;;34.00;;
20104;SDS011;10212;42.714;23.310;2023-02-23T17:27:22;31.38;;;15.27;;
20104;SDS011;10212;42.714;23.310;2023-02-23T17:37:22;38.50;;;19.55;;
20104;SDS011;10212;42.714;23.310;2023-02-23T17:47:23;27.58;;;14.10;;
20104;SDS011;10212;42.714;23.310;2023-02-23T17:57:23;35.50;;;17.70;;
20104;SDS011;10212;42.714;23.310;2023-02-23T18:07:25;39.22;;;20.83;;
20104;SDS011;10212;42.714;23.310;2023-02-23T18:17:25;34.45;;;19.90;;
20104;SDS011;10212;42.714;23.310;2023-02-23T18:27:26;31.15;;;18.83;;
20104;SDS011;10212;42.714;23.310;2023-02-23T18:37:26;39.22;;;21.48;;
20104;SDS011;10212;42.714;23.310;2023-02-23T18:47:27;40.83;;;21.75;;
20104;SDS011;10212;42.714;23.310;2023-02-23T18:57:28;39.97;;;23.23;;
20104;SDS011;10212;42.714;23.310;2023-02-23T19:07:29;40.58;;;22.73;;
20104;SDS011;10212;42.714;23.310;2023-02-23T19:17:30;45.78;;;24.98;;
20104;SDS011;10212;42.714;23.310;2023-02-23T19:27:30;40.95;;;23.83;;
20104;SDS011;10212;42.714;23.310;2023-02-23T19:37:33;36.47;;;20.88;;
20104;SDS011;10212;42.714;23.310;2023-02-23T19:47:33;33.70;;;20.38;;
20104;SDS011;10212;42.714;23.310;2023-02-23T19:57:34;35.22;;;21.00;;
20104;SDS011;10212;42.714;23.310;2023-02-23T20:07:34;43.47;;;22.13;;
20104;SDS011;10212;42.714;23.310;2023-02-23T20:17:35;42.97;;;21.35;;
20104;SDS011;10212;42.714;23.310;2023-02-23T20:27:36;41.38;;;22.42;;
20104;SDS011;10212;42.714;23.310;2023-02-23T20:37:36;48.10;;;23.70;;
20104;SDS011;10212;42.714;23.310;2023-02-23T20:47:37;52.22;;;26.63;;
20104;SDS011;10212;42.714;23.310;2023-02-23T20:57:38;58.67;;;26.73;;
20104;SDS011;10212;42.714;23.310;2023-02-23T21:07:38;59.35;;;28.15;;
20104;SDS011;10212;42.714;23.310;2023-02-23T21:17:40;59.58;;;27.55;;
20104;SDS011;10212;42.714;23.310;2023-02-23T21:27:41;62.30;;;28.42;;
20104;SDS011;10212;42.714;23.310;2023-02-23T21:37:44;60.28;;;27.73;;
20104;SDS011;10212;42.714;23.310;2023-02-23T21:47:46;56.55;;;26.30;;
20104;SDS011;10212;42.714;23.310;2023-02-23T21:57:47;56.30;;;26.13;;
20104;SDS011;10212;42.714;23.310;2023-02-23T22:07:49;62.65;;;28.00;;
20104;SDS011;10212;42.714;23.310;2023-02-23T22:17:53;52.15;;;24.98;;
20104;SDS011;10212;42.714;23.310;2023-02-23T22:27:54;46.60;;;22.90;;
20104;SDS011;10212;42.714;23.310;2023-02-23T22:37:54;42.35;;;21.02;;
20104;SDS011;10212;42.714;23.310;2023-02-23T22:47:54;38.13;;;18.90;;
20104;SDS011;10212;42.714;23.310;2023-02-23T22:58:00;35.40;;;17.45;;
20104;SDS011;10212;42.714;23.310;2023-02-23T23:08:01;29.15;;;15.25;;
20104;SDS011;10212;42.714;23.310;2023-02-23T23:18:01;24.23;;;12.20;;
20104;SDS011;10212;42.714;23.310;2023-02-23T23:28:01;19.77;;;10.73;;
20104;SDS011;10212;42.714;23.310;2023-02-23T23:38:03;17.67;;;10.43;;
20104;SDS011;10212;42.714;23.310;2023-02-23T23:48:05;18.50;;;9.57;;
20104;SDS011;10212;42.714;23.310;2023-02-23T23:58:08;13.85;;;8.40;;
